Time;durP1;ratioP1;P1;durP2;ratioP2;P2;SDS_P1;SDS_P2;PMS_P1;PMS_P2;Temp;Humidity;BMP_temperature;BMP_pressure;BME280_temperature;BME280_humidity;BME280_pressure;Samples;Min_cycle;Max_cycle;Signal;HPM_P1;HPM_P2
2022/09/09 00:02:20;;;;;;;15.43;12.18;;;;;;;;;;4973528;28;20041;-81
2022/09/09 00:04:58;;;;;;;18.48;13.20;;;;;;;;;;4973396;28;20047;-81
2022/09/09 00:07:42;;;;;;;18.30;12.75;;;;;;;;;;4975930;28;20085;-80
2022/09/09 00:10:11;;;;;;;20.45;14.00;;;;;;;;;;4972109;28;20480;-81
2022/09/09 00:12:48;;;;;;;17.48;12.90;;;;;;;;;;4986419;28;20047;-81
2022/09/09 00:15:15;;;;;;;19.95;13.43;;;;;;;;;;4972328;28;20046;-81
2022/09/09 00:17:47;;;;;;;19.30;13.73;;;;;;;;;;4973492;28;20051;-81
2022/09/09 00:20:16;;;;;;;24.65;13.63;;;;;;;;;;4973738;28;20054;-81
2022/09/09 00:22:48;;;;;;;17.63;13.63;;;;;;;;;;4984899;28;20047;-81
2022/09/09 00:25:34;;;;;;;22.80;13.93;;;;;;;;;;4973637;28;20043;-81
2022/09/09 00:28:00;;;;;;;18.63;13.18;;;;;;;;;;4972241;28;20042;-81
2022/09/09 00:30:27;;;;;;;18.17;13.18;;;;;;;;;;4973773;28;20054;-81
2022/09/09 00:32:57;;;;;;;15.90;11.85;;;;;;;;;;4973087;28;20074;-81
2022/09/09 00:35:44;;;;;;;17.05;11.88;;;;;;;;;;4974324;28;20078;-81
2022/09/09 00:38:16;;;;;;;15.40;11.77;;;;;;;;;;4971913;28;20105;-81
2022/09/09 00:41:01;;;;;;;16.85;10.65;;;;;;;;;;4986890;28;20480;-81
2022/09/09 00:43:32;;;;;;;16.13;11.45;;;;;;;;;;4984929;28;20428;-81
2022/09/09 00:45:58;;;;;;;16.50;10.68;;;;;;;;;;4972857;28;20047;-81
2022/09/09 00:48:30;;;;;;;16.02;11.32;;;;;;;;;;4973332;28;20050;-81
2022/09/09 00:50:59;;;;;;;18.67;11.98;;;;;;;;;;4972474;28;20046;-81
2022/09/09 00:53:37;;;;;;;14.77;10.88;;;;;;;;;;4971437;28;20058;-81
2022/09/09 00:56:04;;;;;;;15.15;11.73;;;;;;;;;;4990089;28;20054;-81
2022/09/09 00:58:33;;;;;;;15.40;11.75;;;;;;;;;;4956876;28;20279;-82
2022/09/09 01:01:07;;;;;;;16.52;11.25;;;;;;;;;;4984022;28;20046;-81
2022/09/09 01:03:33;;;;;;;16.00;10.98;;;;;;;;;;4988257;28;20484;-81
2022/09/09 01:05:59;;;;;;;17.88;11.68;;;;;;;;;;4972808;28;20053;-81
2022/09/09 01:08:33;;;;;;;18.63;12.13;;;;;;;;;;4972370;28;20050;-81
2022/09/09 01:10:59;;;;;;;16.52;11.32;;;;;;;;;;4985384;28;20420;-81
2022/09/09 01:13:30;;;;;;;18.63;12.45;;;;;;;;;;4983628;28;20106;-81
2022/09/09 01:15:59;;;;;;;17.25;11.75;;;;;;;;;;4972592;28;20440;-81
2022/09/09 01:18:27;;;;;;;14.55;11.00;;;;;;;;;;4971967;28;20508;-81
2022/09/09 01:21:00;;;;;;;17.65;10.95;;;;;;;;;;4971324;28;20418;-81
2022/09/09 01:23:46;;;;;;;18.00;11.40;;;;;;;;;;4972054;28;20423;-81
2022/09/09 01:26:24;;;;;;;15.75;11.10;;;;;;;;;;4972429;28;20756;-81
2022/09/09 01:28:52;;;;;;;16.23;11.45;;;;;;;;;;4969769;28;20066;-81
2022/09/09 01:31:39;;;;;;;15.15;11.65;;;;;;;;;;4974851;28;20039;-81
2022/09/09 01:34:04;;;;;;;;;;;;;;;;;;4972537;28;20078;-81
2022/09/09 01:36:38;;;;;;;17.42;11.30;;;;;;;;;;4974988;28;19968;-81
2022/09/09 01:39:04;;;;;;;16.70;11.57;;;;;;;;;;4971356;28;20070;-81
2022/09/09 01:41:31;;;;;;;15.23;10.98;;;;;;;;;;4978061;28;20328;-81
2022/09/09 01:43:57;;;;;;;17.08;10.68;;;;;;;;;;4983742;28;20424;-81
2022/09/09 01:46:23;;;;;;;16.10;11.52;;;;;;;;;;4975649;28;20046;-81
2022/09/09 01:48:50;;;;;;;15.75;11.40;;;;;;;;;;4980260;28;20514;-81
2022/09/09 01:51:16;;;;;;;20.77;11.57;;;;;;;;;;4972432;28;20492;-81
2022/09/09 01:53:43;;;;;;;14.98;10.95;;;;;;;;;;4972188;28;20046;-81
2022/09/09 01:56:10;;;;;;;16.58;11.20;;;;;;;;;;4971900;28;20051;-81
2022/09/09 01:58:58;;;;;;;17.17;11.43;;;;;;;;;;4950503;28;20149;-81
2022/09/09 02:01:39;;;;;;;15.68;10.80;;;;;;;;;;4983247;28;20047;-81
2022/09/09 02:04:12;;;;;;;14.93;10.50;;;;;;;;;;4970684;28;20055;-81
2022/09/09 02:06:40;;;;;;;16.70;11.93;;;;;;;;;;4972389;28;20051;-81
2022/09/09 02:09:07;;;;;;;16.02;11.35;;;;;;;;;;4972550;28;20050;-81
2022/09/09 02:11:34;;;;;;;17.13;11.52;;;;;;;;;;4983481;28;20062;-81
2022/09/09 02:14:06;;;;;;;16.05;12.13;;;;;;;;;;4973612;28;20573;-81
2022/09/09 02:16:55;;;;;;;17.95;12.05;;;;;;;;;;4979126;28;20133;-81
2022/09/09 02:19:28;;;;;;;15.90;12.30;;;;;;;;;;4958217;28;20137;-81
2022/09/09 02:21:55;;;;;;;17.60;11.68;;;;;;;;;;4970386;28;20054;-81
2022/09/09 02:24:22;;;;;;;18.80;11.85;;;;;;;;;;4971678;28;20053;-81
2022/09/09 02:26:50;;;;;;;18.10;11.73;;;;;;;;;;4969847;28;20078;-81
2022/09/09 02:29:20;;;;;;;20.75;12.10;;;;;;;;;;4973148;28;20501;-81
2022/09/09 02:31:48;;;;;;;17.83;12.40;;;;;;;;;;4970021;28;20125;-81
2022/09/09 02:34:14;;;;;;;17.85;11.98;;;;;;;;;;4975216;28;20443;-81
2022/09/09 02:36:43;;;;;;;16.40;12.30;;;;;;;;;;4972934;28;20051;-81
2022/09/09 02:39:10;;;;;;;17.58;11.65;;;;;;;;;;4979745;28;20065;-81
2022/09/09 02:41:37;;;;;;;17.00;12.40;;;;;;;;;;4975894;28;20046;-81
2022/09/09 02:44:06;;;;;;;19.55;12.45;;;;;;;;;;4973856;28;20078;-81
2022/09/09 02:46:39;;;;;;;18.95;12.07;;;;;;;;;;4972060;28;20047;-81
2022/09/09 02:49:15;;;;;;;19.85;11.77;;;;;;;;;;4977884;28;20039;-81
2022/09/09 02:51:41;;;;;;;17.95;12.85;;;;;;;;;;4970495;28;20058;-81
2022/09/09 02:54:09;;;;;;;15.40;12.43;;;;;;;;;;4971118;28;20043;-81
2022/09/09 02:56:39;;;;;;;18.08;12.27;;;;;;;;;;4970420;28;20055;-81
2022/09/09 02:59:05;;;;;;;16.10;12.48;;;;;;;;;;4957390;28;20488;-81
2022/09/09 03:01:32;;;;;;;18.08;12.30;;;;;;;;;;4971147;28;20070;-81
2022/09/09 03:03:58;;;;;;;18.00;11.57;;;;;;;;;;4972031;28;20594;-81
2022/09/09 03:06:24;;;;;;;16.90;12.10;;;;;;;;;;4970051;28;20117;-81
2022/09/09 03:08:50;;;;;;;18.40;12.05;;;;;;;;;;4971150;28;20043;-81
2022/09/09 03:11:16;;;;;;;17.13;12.45;;;;;;;;;;4971805;28;20042;-81
2022/09/09 03:13:43;;;;;;;17.67;12.00;;;;;;;;;;4967925;28;20111;-81
2022/09/09 03:16:09;;;;;;;16.33;11.90;;;;;;;;;;4968979;28;20504;-81
2022/09/09 03:18:35;;;;;;;15.93;12.13;;;;;;;;;;4970335;28;20093;-81
2022/09/09 03:21:01;;;;;;;18.40;12.73;;;;;;;;;;4968823;28;20053;-81
2022/09/09 03:23:28;;;;;;;18.63;12.25;;;;;;;;;;4971865;28;20532;-81
2022/09/09 03:25:56;;;;;;;19.85;11.55;;;;;;;;;;4972157;28;20109;-81
2022/09/09 03:28:23;;;;;;;16.10;11.55;;;;;;;;;;4971831;28;20055;-81
2022/09/09 03:30:49;;;;;;;16.85;11.43;;;;;;;;;;4968779;28;20130;-81
2022/09/09 03:33:16;;;;;;;19.35;11.63;;;;;;;;;;4970382;28;20507;-81
2022/09/09 03:35:48;;;;;;;16.95;11.10;;;;;;;;;;4969242;28;20495;-81
2022/09/09 03:38:14;;;;;;;20.80;12.80;;;;;;;;;;4970880;28;20628;-81
2022/09/09 03:40:48;;;;;;;17.65;11.68;;;;;;;;;;4969767;28;20050;-81
2022/09/09 03:43:16;;;;;;;17.02;12.02;;;;;;;;;;4983055;28;20554;-81
2022/09/09 03:45:47;;;;;;;17.05;11.82;;;;;;;;;;4983623;28;20523;-81
2022/09/09 03:48:13;;;;;;;18.08;12.77;;;;;;;;;;4969990;28;20054;-81
2022/09/09 03:50:39;;;;;;;19.35;12.65;;;;;;;;;;4969917;28;20035;-81
2022/09/09 03:53:05;;;;;;;16.85;11.48;;;;;;;;;;4970118;28;20388;-81
2022/09/09 03:55:32;;;;;;;17.75;12.00;;;;;;;;;;4983872;28;20042;-81
2022/09/09 03:58:00;;;;;;;17.90;12.45;;;;;;;;;;4967803;28;20082;-81
2022/09/09 04:00:26;;;;;;;17.77;11.50;;;;;;;;;;4976768;28;20057;-81
2022/09/09 04:02:53;;;;;;;16.23;11.88;;;;;;;;;;4969808;28;20042;-81
2022/09/09 04:05:19;;;;;;;16.92;10.93;;;;;;;;;;4969695;28;20077;-81
2022/09/09 04:07:45;;;;;;;16.92;11.18;;;;;;;;;;4970737;28;20046;-81
2022/09/09 04:10:12;;;;;;;13.88;10.75;;;;;;;;;;4978172;28;20049;-81
2022/09/09 04:12:38;;;;;;;18.33;11.05;;;;;;;;;;4978282;28;20055;-81
2022/09/09 04:15:04;;;;;;;16.15;11.30;;;;;;;;;;4967921;28;20057;-81
2022/09/09 04:17:30;;;;;;;18.25;11.57;;;;;;;;;;4970079;28;20047;-81
2022/09/09 04:19:57;;;;;;;21.27;13.70;;;;;;;;;;4977255;28;20120;-81
2022/09/09 04:22:23;;;;;;;18.05;11.45;;;;;;;;;;4974401;28;20051;-81
2022/09/09 04:24:49;;;;;;;17.85;10.95;;;;;;;;;;4974866;28;20395;-81
2022/09/09 04:27:15;;;;;;;17.40;11.30;;;;;;;;;;4973797;28;20053;-81
2022/09/09 04:29:41;;;;;;;19.35;12.80;;;;;;;;;;4985949;28;20045;-81
2022/09/09 04:32:07;;;;;;;20.48;12.93;;;;;;;;;;4980918;28;20106;-82
2022/09/09 04:34:33;;;;;;;20.23;13.30;;;;;;;;;;4976003;28;20046;-81
2022/09/09 04:37:00;;;;;;;17.98;11.93;;;;;;;;;;4972493;28;20051;-82
2022/09/09 04:39:26;;;;;;;19.42;11.30;;;;;;;;;;4974463;28;20126;-81
2022/09/09 04:41:52;;;;;;;19.60;10.52;;;;;;;;;;4982440;28;20046;-81
2022/09/09 04:44:19;;;;;;;16.95;10.27;;;;;;;;;;4987457;28;20054;-81
2022/09/09 04:46:45;;;;;;;13.80;10.32;;;;;;;;;;4971542;28;20464;-82
2022/09/09 04:49:11;;;;;;;15.60;10.38;;;;;;;;;;4972083;28;20047;-82
2022/09/09 04:51:37;;;;;;;16.48;10.30;;;;;;;;;;4973270;28;20047;-82
2022/09/09 04:54:03;;;;;;;13.57;9.40;;;;;;;;;;4971671;28;20134;-82
2022/09/09 04:56:29;;;;;;;13.80;9.07;;;;;;;;;;4972120;28;20069;-82
2022/09/09 04:58:55;;;;;;;16.70;10.07;;;;;;;;;;4969569;28;20054;-82
2022/09/09 05:01:23;;;;;;;14.93;10.13;;;;;;;;;;4972884;28;20043;-82
2022/09/09 05:03:49;;;;;;;14.82;10.65;;;;;;;;;;4979741;28;20046;-83
2022/09/09 05:06:17;;;;;;;15.00;10.52;;;;;;;;;;4973243;28;20085;-82
2022/09/09 05:08:43;;;;;;;19.85;10.80;;;;;;;;;;4983200;28;20399;-82
2022/09/09 05:11:20;;;;;;;14.65;10.10;;;;;;;;;;4986077;28;20487;-82
2022/09/09 05:13:47;;;;;;;14.98;10.18;;;;;;;;;;4982918;28;20047;-83
2022/09/09 05:16:13;;;;;;;15.30;10.43;;;;;;;;;;4972170;28;20051;-82
2022/09/09 05:18:39;;;;;;;16.17;10.90;;;;;;;;;;4971432;28;20054;-82
2022/09/09 05:21:06;;;;;;;14.40;10.60;;;;;;;;;;4971013;28;20042;-82
2022/09/09 05:23:33;;;;;;;16.45;11.07;;;;;;;;;;4979199;28;20169;-82
2022/09/09 05:26:00;;;;;;;19.52;11.23;;;;;;;;;;4973854;28;20039;-82
2022/09/09 05:28:26;;;;;;;17.65;11.07;;;;;;;;;;4972516;28;20054;-82
2022/09/09 05:31:00;;;;;;;17.08;10.95;;;;;;;;;;4971535;28;20046;-82
2022/09/09 05:33:26;;;;;;;18.20;11.02;;;;;;;;;;4970621;28;20133;-82
2022/09/09 05:35:59;;;;;;;15.60;10.23;;;;;;;;;;4971701;28;20039;-82
2022/09/09 05:38:26;;;;;;;16.85;11.25;;;;;;;;;;4971545;28;20046;-82
2022/09/09 05:40:52;;;;;;;15.07;11.30;;;;;;;;;;4974700;28;20487;-82
2022/09/09 05:43:19;;;;;;;16.27;10.73;;;;;;;;;;4973954;28;20463;-82
2022/09/09 05:45:47;;;;;;;19.75;11.65;;;;;;;;;;4971330;28;20047;-82
2022/09/09 05:48:14;;;;;;;19.13;11.90;;;;;;;;;;4986394;28;20058;-82
2022/09/09 05:50:41;;;;;;;20.25;12.70;;;;;;;;;;4976639;28;20038;-82
2022/09/09 05:53:07;;;;;;;21.67;12.68;;;;;;;;;;4970844;28;20046;-82
2022/09/09 05:55:33;;;;;;;17.50;12.30;;;;;;;;;;4973264;28;20057;-82
2022/09/09 05:57:59;;;;;;;17.23;12.50;;;;;;;;;;4970921;28;20042;-81
2022/09/09 06:00:26;;;;;;;20.92;12.15;;;;;;;;;;4981960;28;20480;-82
2022/09/09 06:02:53;;;;;;;16.83;11.23;;;;;;;;;;4982568;28;20058;-82
2022/09/09 06:05:20;;;;;;;17.38;12.38;;;;;;;;;;4971535;28;20062;-82
2022/09/09 06:07:46;;;;;;;19.10;13.18;;;;;;;;;;4972292;28;20496;-82
2022/09/09 06:10:13;;;;;;;19.38;12.38;;;;;;;;;;4972779;28;20059;-82
2022/09/09 06:12:40;;;;;;;19.17;12.88;;;;;;;;;;4971964;28;20043;-83
2022/09/09 06:15:07;;;;;;;18.45;13.13;;;;;;;;;;4971164;28;20094;-81
2022/09/09 06:17:33;;;;;;;19.48;13.57;;;;;;;;;;4972465;28;20051;-81
2022/09/09 06:19:59;;;;;;;18.65;13.77;;;;;;;;;;4967469;28;20098;-82
2022/09/09 06:22:25;;;;;;;19.60;13.60;;;;;;;;;;4973889;28;20403;-82
2022/09/09 06:24:51;;;;;;;19.63;14.30;;;;;;;;;;4971630;28;20051;-85
2022/09/09 06:27:17;;;;;;;20.27;13.98;;;;;;;;;;4954966;28;20125;-82
2022/09/09 06:29:43;;;;;;;22.50;14.30;;;;;;;;;;4971127;28;20121;-80
2022/09/09 06:32:09;;;;;;;19.25;14.00;;;;;;;;;;4970490;28;20062;-80
2022/09/09 06:34:36;;;;;;;20.85;14.60;;;;;;;;;;4969467;28;20134;-80
2022/09/09 06:37:02;;;;;;;20.88;13.85;;;;;;;;;;4970807;28;20578;-81
2022/09/09 06:39:28;;;;;;;20.52;13.45;;;;;;;;;;4985876;28;20104;-80
2022/09/09 06:41:55;;;;;;;16.90;13.55;;;;;;;;;;4989604;28;20129;-80
2022/09/09 06:44:22;;;;;;;18.05;13.73;;;;;;;;;;4989849;28;20097;-80
2022/09/09 06:46:49;;;;;;;18.98;13.48;;;;;;;;;;4990718;28;20192;-79
2022/09/09 06:49:15;;;;;;;20.23;14.27;;;;;;;;;;4978588;28;20517;-80
2022/09/09 06:51:43;;;;;;;18.80;13.55;;;;;;;;;;4983616;28;20403;-79
2022/09/09 06:54:09;;;;;;;18.40;13.50;;;;;;;;;;4989848;28;20065;-80
2022/09/09 06:56:37;;;;;;;21.77;14.13;;;;;;;;;;4988877;28;20046;-80
2022/09/09 06:59:08;;;;;;;18.38;13.57;;;;;;;;;;4971932;28;20057;-80
2022/09/09 07:01:35;;;;;;;16.52;13.70;;;;;;;;;;4990532;28;20422;-80
2022/09/09 07:04:01;;;;;;;15.73;13.07;;;;;;;;;;4976919;28;20058;-80
2022/09/09 07:06:34;;;;;;;16.38;12.73;;;;;;;;;;4982985;28;20111;-80
2022/09/09 07:09:03;;;;;;;16.75;12.02;;;;;;;;;;4990161;28;20065;-80
2022/09/09 07:11:30;;;;;;;15.25;12.00;;;;;;;;;;4984652;28;20050;-81
2022/09/09 07:13:57;;;;;;;15.15;12.15;;;;;;;;;;4989186;28;20038;-80
2022/09/09 07:16:24;;;;;;;15.05;11.82;;;;;;;;;;4977512;28;20034;-80
2022/09/09 07:18:50;;;;;;;15.60;11.02;;;;;;;;;;4982210;28;20117;-80
2022/09/09 07:21:17;;;;;;;18.20;11.75;;;;;;;;;;4987018;28;20034;-81
2022/09/09 07:23:44;;;;;;;14.90;10.80;;;;;;;;;;4972693;28;20054;-81
2022/09/09 07:26:11;;;;;;;15.88;11.10;;;;;;;;;;4970724;28;20384;-81
2022/09/09 07:28:38;;;;;;;12.93;9.82;;;;;;;;;;4969661;28;20137;-80
2022/09/09 07:31:05;;;;;;;17.30;11.70;;;;;;;;;;4988433;28;20527;-80
2022/09/09 07:33:31;;;;;;;16.90;11.65;;;;;;;;;;4978436;28;20476;-80
2022/09/09 07:36:12;;;;;;;13.48;10.82;;;;;;;;;;4983191;28;20499;-80
2022/09/09 07:38:44;;;;;;;15.05;11.43;;;;;;;;;;4970659;28;20051;-82
2022/09/09 07:41:11;;;;;;;16.05;10.55;;;;;;;;;;4969209;28;20086;-82
2022/09/09 07:43:39;;;;;;;13.77;10.75;;;;;;;;;;4975265;28;20522;-85
2022/09/09 07:46:05;;;;;;;14.23;10.27;;;;;;;;;;4970439;28;20046;-84
2022/09/09 07:48:32;;;;;;;13.85;10.30;;;;;;;;;;4969809;28;20094;-82
2022/09/09 07:51:10;;;;;;;15.10;10.35;;;;;;;;;;4980059;28;20050;-82
2022/09/09 07:53:38;;;;;;;12.88;9.50;;;;;;;;;;4955439;28;20191;-82
2022/09/09 07:56:16;;;;;;;11.52;9.18;;;;;;;;;;4969512;28;20061;-82
2022/09/09 07:58:43;;;;;;;12.77;8.65;;;;;;;;;;4948276;28;20055;-81
2022/09/09 08:01:13;;;;;;;11.90;9.45;;;;;;;;;;4974219;28;20398;-81
2022/09/09 08:03:39;;;;;;;11.63;8.77;;;;;;;;;;4984843;28;20078;-81
2022/09/09 08:06:07;;;;;;;11.02;8.43;;;;;;;;;;4985380;28;20129;-81
2022/09/09 08:08:34;;;;;;;10.95;7.70;;;;;;;;;;4983270;28;20046;-81
2022/09/09 08:11:04;;;;;;;10.65;8.98;;;;;;;;;;4979634;28;20039;-81
2022/09/09 08:13:31;;;;;;;9.45;7.55;;;;;;;;;;4992096;28;20054;-82
2022/09/09 08:16:04;;;;;;;10.38;7.85;;;;;;;;;;4987593;28;20046;-80
2022/09/09 08:18:30;;;;;;;11.98;8.10;;;;;;;;;;4973720;28;20046;-80
2022/09/09 08:20:56;;;;;;;12.05;8.27;;;;;;;;;;4971551;28;20043;-79
2022/09/09 08:23:22;;;;;;;12.45;7.70;;;;;;;;;;4973708;28;20046;-79
2022/09/09 08:25:49;;;;;;;12.05;8.63;;;;;;;;;;4972423;28;20067;-79
2022/09/09 08:28:16;;;;;;;12.73;8.23;;;;;;;;;;4973408;28;20051;-79
2022/09/09 08:30:42;;;;;;;10.57;7.20;;;;;;;;;;4973206;28;20085;-79
2022/09/09 08:33:10;;;;;;;11.85;7.70;;;;;;;;;;4992971;28;20133;-79
2022/09/09 08:35:36;;;;;;;12.30;7.90;;;;;;;;;;4992754;28;20051;-79
2022/09/09 08:38:02;;;;;;;9.63;7.10;;;;;;;;;;4992472;28;20065;-80
2022/09/09 08:40:31;;;;;;;10.48;7.53;;;;;;;;;;4990170;28;20046;-79
2022/09/09 08:42:58;;;;;;;8.77;7.72;;;;;;;;;;4965339;28;20103;-79
2022/09/09 08:45:24;;;;;;;11.05;7.55;;;;;;;;;;4988745;28;20140;-80
2022/09/09 08:48:08;;;;;;;9.95;6.70;;;;;;;;;;4981320;28;20174;-79
2022/09/09 08:50:35;;;;;;;14.20;7.20;;;;;;;;;;4978155;28;20391;-80
2022/09/09 08:53:01;;;;;;;9.13;7.03;;;;;;;;;;4990202;28;20046;-80
2022/09/09 08:55:37;;;;;;;9.05;6.90;;;;;;;;;;4978205;28;20133;-80
2022/09/09 08:58:13;;;;;;;8.38;6.93;;;;;;;;;;4978969;28;20130;-80
2022/09/09 09:00:48;;;;;;;12.85;7.57;;;;;;;;;;4983260;28;20050;-80
2022/09/09 09:03:33;;;;;;;11.55;7.20;;;;;;;;;;4987695;28;20057;-80
2022/09/09 09:06:07;;;;;;;11.20;7.60;;;;;;;;;;4991936;28;20054;-80
2022/09/09 09:08:33;;;;;;;10.35;7.00;;;;;;;;;;4980632;28;20047;-80
2022/09/09 09:11:02;;;;;;;9.82;5.97;;;;;;;;;;4980687;28;20133;-79
2022/09/09 09:13:47;;;;;;;7.78;5.47;;;;;;;;;;4975231;28;20499;-79
2022/09/09 09:16:16;;;;;;;11.07;6.25;;;;;;;;;;4978302;28;20046;-80
2022/09/09 09:18:42;;;;;;;10.40;5.55;;;;;;;;;;4976155;28;20518;-79
2022/09/09 09:21:18;;;;;;;10.43;5.80;;;;;;;;;;4972330;28;20046;-80
2022/09/09 09:23:44;;;;;;;;;;;;;;;;;;4971255;28;20055;-79
2022/09/09 09:26:11;;;;;;;10.70;5.50;;;;;;;;;;4972363;28;19977;-79
2022/09/09 09:28:37;;;;;;;12.07;6.25;;;;;;;;;;4984274;28;20057;-81
2022/09/09 09:31:08;;;;;;;9.85;5.88;;;;;;;;;;4971860;28;20051;-79
2022/09/09 09:33:46;;;;;;;7.63;5.85;;;;;;;;;;4990385;28;20121;-79
2022/09/09 09:36:15;;;;;;;9.27;6.13;;;;;;;;;;4990934;28;20086;-78
2022/09/09 09:38:52;;;;;;;10.05;5.97;;;;;;;;;;4970529;28;20094;-80
2022/09/09 09:41:29;;;;;;;10.38;6.45;;;;;;;;;;4976451;28;20436;-81
2022/09/09 09:43:55;;;;;;;9.18;5.80;;;;;;;;;;4976696;28;20427;-92
2022/09/09 09:46:26;;;;;;;12.52;6.15;;;;;;;;;;4988435;28;20061;-86
2022/09/09 09:49:02;;;;;;;8.55;6.20;;;;;;;;;;4991264;28;20058;-82
2022/09/09 09:51:30;;;;;;;12.95;6.25;;;;;;;;;;4989266;28;20053;-81
2022/09/09 09:54:18;;;;;;;7.57;5.15;;;;;;;;;;4987962;28;20051;-81
2022/09/09 09:56:45;;;;;;;9.57;5.95;;;;;;;;;;4973128;28;20512;-81
2022/09/09 09:59:33;;;;;;;9.82;5.43;;;;;;;;;;4953173;28;20062;-83
2022/09/09 10:02:18;;;;;;;11.52;5.25;;;;;;;;;;4986767;28;20057;-83
2022/09/09 10:04:47;;;;;;;8.90;4.40;;;;;;;;;;4990981;28;20385;-84
2022/09/09 10:07:17;;;;;;;9.20;5.10;;;;;;;;;;4987040;28;20125;-82
2022/09/09 10:09:43;;;;;;;9.13;4.93;;;;;;;;;;4983975;28;20043;-81
2022/09/09 10:12:12;;;;;;;7.07;4.40;;;;;;;;;;4983331;28;20129;-82
2022/09/09 10:14:57;;;;;;;7.78;4.15;;;;;;;;;;4989320;28;20078;-81
2022/09/09 10:17:23;;;;;;;8.60;4.35;;;;;;;;;;4969573;28;20078;-81
2022/09/09 10:19:58;;;;;;;8.52;4.60;;;;;;;;;;4970124;28;20047;-81
2022/09/09 10:22:24;;;;;;;7.10;4.30;;;;;;;;;;4970557;28;20039;-81
2022/09/09 10:24:57;;;;;;;6.13;4.10;;;;;;;;;;4970831;28;20055;-82
2022/09/09 10:27:46;;;;;;;8.88;4.30;;;;;;;;;;4971625;28;20057;-81
2022/09/09 10:30:17;;;;;;;9.93;4.22;;;;;;;;;;4972151;28;20199;-81
2022/09/09 10:32:50;;;;;;;6.40;3.20;;;;;;;;;;4980006;28;20050;-82
2022/09/09 10:35:28;;;;;;;7.65;3.42;;;;;;;;;;4989834;28;20515;-81
2022/09/09 10:38:13;;;;;;;7.45;3.25;;;;;;;;;;4969301;28;20054;-82
2022/09/09 10:40:47;;;;;;;6.05;3.30;;;;;;;;;;4981879;28;20046;-81
2022/09/09 10:43:32;;;;;;;5.82;3.45;;;;;;;;;;4979872;28;20444;-80
2022/09/09 10:46:12;;;;;;;6.03;3.13;;;;;;;;;;4976748;28;20035;-84
2022/09/09 10:48:47;;;;;;;8.45;3.60;;;;;;;;;;4974903;28;20050;-81
2022/09/09 10:51:16;;;;;;;7.25;3.80;;;;;;;;;;4993128;28;20046;-83
2022/09/09 10:53:51;;;;;;;7.10;3.75;;;;;;;;;;4971656;28;20377;-81
2022/09/09 10:56:18;;;;;;;8.45;4.70;;;;;;;;;;4975468;28;20039;-85
2022/09/09 10:58:48;;;;;;;8.73;3.83;;;;;;;;;;4966588;28;20050;-78
2022/09/09 11:01:34;;;;;;;8.85;4.13;;;;;;;;;;4982216;28;20045;-81
2022/09/09 11:04:14;;;;;;;8.88;4.00;;;;;;;;;;4979414;28;21280;-84
2022/09/09 11:06:42;;;;;;;6.45;3.45;;;;;;;;;;4972978;28;20055;-81
2022/09/09 11:09:14;;;;;;;7.82;3.30;;;;;;;;;;4968090;28;20046;-81
2022/09/09 11:11:44;;;;;;;5.40;2.90;;;;;;;;;;4969359;28;20057;-81
2022/09/09 11:14:16;;;;;;;7.85;3.47;;;;;;;;;;4968677;28;20133;-81
2022/09/09 11:16:42;;;;;;;7.57;3.40;;;;;;;;;;4977783;28;20096;-81
2022/09/09 11:19:11;;;;;;;9.52;3.40;;;;;;;;;;4989491;28;20050;-81
2022/09/09 11:21:41;;;;;;;6.72;3.13;;;;;;;;;;4989002;28;20088;-81
2022/09/09 11:24:11;;;;;;;7.15;3.63;;;;;;;;;;4988509;28;20046;-81
2022/09/09 11:26:39;;;;;;;4.75;2.63;;;;;;;;;;4989831;28;20061;-81
2022/09/09 11:29:11;;;;;;;5.47;2.92;;;;;;;;;;4990985;28;20077;-81
2022/09/09 11:31:56;;;;;;;6.00;2.58;;;;;;;;;;4989770;28;20052;-81
2022/09/09 11:34:37;;;;;;;5.97;2.45;;;;;;;;;;4989378;28;20050;-81
2022/09/09 11:37:17;;;;;;;4.05;2.30;;;;;;;;;;4986814;28;20057;-82
2022/09/09 11:39:49;;;;;;;8.95;2.58;;;;;;;;;;4990938;28;20042;-81
2022/09/09 11:42:18;;;;;;;4.53;2.42;;;;;;;;;;4988444;28;20053;-81
2022/09/09 11:44:44;;;;;;;5.10;2.55;;;;;;;;;;4988685;28;20081;-81
2022/09/09 11:47:19;;;;;;;6.40;2.47;;;;;;;;;;4986449;28;20050;-81
2022/09/09 11:49:45;;;;;;;6.13;3.03;;;;;;;;;;4988796;28;20054;-81
2022/09/09 11:52:32;;;;;;;7.15;2.70;;;;;;;;;;4988158;28;20403;-81
2022/09/09 11:54:58;;;;;;;;;;;;;;;;;;4977654;28;20054;-82
2022/09/09 11:57:24;;;;;;;;;;;;;;;;;;4990065;28;20418;-82
2022/09/09 11:59:54;;;;;;;5.90;2.35;;;;;;;;;;4975080;28;19957;-81
2022/09/09 12:02:26;;;;;;;5.05;2.58;;;;;;;;;;4989791;28;20050;-81
2022/09/09 12:05:05;;;;;;;4.88;2.45;;;;;;;;;;4988090;28;20276;-81
2022/09/09 12:07:34;;;;;;;6.50;3.08;;;;;;;;;;4987583;28;20050;-81
2022/09/09 12:10:06;;;;;;;5.70;2.40;;;;;;;;;;4985398;28;20133;-81
2022/09/09 12:12:37;;;;;;;5.88;2.15;;;;;;;;;;4988589;28;20061;-81
2022/09/09 12:15:03;;;;;;;5.47;2.70;;;;;;;;;;4989195;28;20133;-81
2022/09/09 12:17:31;;;;;;;6.07;2.50;;;;;;;;;;4988427;28;20101;-81
2022/09/09 12:20:07;;;;;;;5.45;2.45;;;;;;;;;;4989329;28;20050;-81
2022/09/09 12:22:54;;;;;;;9.30;2.80;;;;;;;;;;4988005;28;20043;-81
2022/09/09 12:25:26;;;;;;;5.53;2.70;;;;;;;;;;4989277;28;20049;-81
2022/09/09 12:28:09;;;;;;;5.18;2.30;;;;;;;;;;4969762;28;20088;-81
2022/09/09 12:30:40;;;;;;;3.03;1.85;;;;;;;;;;4952769;28;20057;-81
2022/09/09 12:33:12;;;;;;;4.85;2.28;;;;;;;;;;4987218;28;20069;-81
2022/09/09 12:35:39;;;;;;;4.57;2.42;;;;;;;;;;4987913;28;20050;-81
2022/09/09 12:38:07;;;;;;;5.38;2.30;;;;;;;;;;4988643;28;20066;-81
2022/09/09 12:40:38;;;;;;;6.10;2.63;;;;;;;;;;4986820;28;20105;-81
2022/09/09 12:43:21;;;;;;;5.00;2.80;;;;;;;;;;4989245;28;20085;-81
2022/09/09 12:45:50;;;;;;;5.97;2.83;;;;;;;;;;4986420;28;20046;-81
2022/09/09 12:48:19;;;;;;;5.72;2.80;;;;;;;;;;4992159;28;20046;-81
2022/09/09 12:50:46;;;;;;;5.07;2.35;;;;;;;;;;4993000;28;20046;-81
2022/09/09 12:53:15;;;;;;;6.10;2.38;;;;;;;;;;4991277;28;20054;-81
2022/09/09 12:55:49;;;;;;;5.28;2.50;;;;;;;;;;4991604;28;20089;-81
2022/09/09 12:58:17;;;;;;;5.00;2.75;;;;;;;;;;4991022;28;20085;-81
2022/09/09 13:00:52;;;;;;;6.22;2.40;;;;;;;;;;4987122;28;20105;-81
2022/09/09 13:03:20;;;;;;;7.15;2.70;;;;;;;;;;4991265;28;20558;-81
2022/09/09 13:05:46;;;;;;;7.43;2.75;;;;;;;;;;4986939;28;20112;-81
2022/09/09 13:08:13;;;;;;;5.40;2.70;;;;;;;;;;4989885;28;20061;-81
2022/09/09 13:10:56;;;;;;;6.40;3.03;;;;;;;;;;4992368;28;20093;-81
2022/09/09 13:13:42;;;;;;;5.90;3.03;;;;;;;;;;4991397;28;20125;-81
2022/09/09 13:16:09;;;;;;;;;;;;;;;;;;4991704;28;20097;-82
2022/09/09 13:18:38;;;;;;;4.93;2.67;;;;;;;;;;4971713;28;19925;-81
2022/09/09 13:21:04;;;;;;;7.28;2.75;;;;;;;;;;4983792;28;20042;-81
2022/09/09 13:23:32;;;;;;;6.55;3.10;;;;;;;;;;4970876;28;20058;-81
2022/09/09 13:25:59;;;;;;;9.27;4.03;;;;;;;;;;4972271;28;20480;-81
2022/09/09 13:28:27;;;;;;;6.82;3.20;;;;;;;;;;4971454;28;20046;-81
2022/09/09 13:30:59;;;;;;;6.20;2.50;;;;;;;;;;4971830;28;20042;-81
2022/09/09 13:33:29;;;;;;;6.18;2.42;;;;;;;;;;4972916;28;20562;-81
2022/09/09 13:35:59;;;;;;;5.93;2.60;;;;;;;;;;4984999;28;20135;-81
2022/09/09 13:38:27;;;;;;;7.40;2.45;;;;;;;;;;4989722;28;20054;-81
2022/09/09 13:41:04;;;;;;;6.38;3.03;;;;;;;;;;4991645;28;20046;-81
2022/09/09 13:43:31;;;;;;;3.75;2.40;;;;;;;;;;4991752;28;20570;-81
2022/09/09 13:46:17;;;;;;;6.10;2.60;;;;;;;;;;4992315;28;20046;-81
2022/09/09 13:48:53;;;;;;;7.55;2.78;;;;;;;;;;4991053;28;20050;-81
2022/09/09 13:51:34;;;;;;;5.53;2.50;;;;;;;;;;4990432;28;20104;-81
2022/09/09 13:54:01;;;;;;;4.78;2.83;;;;;;;;;;4988271;28;20053;-81
2022/09/09 13:56:27;;;;;;;5.05;2.40;;;;;;;;;;4991715;28;20078;-81
2022/09/09 13:58:53;;;;;;;6.68;2.67;;;;;;;;;;4972586;28;20129;-81
2022/09/09 14:01:20;;;;;;;7.43;2.83;;;;;;;;;;4974929;28;21427;-81
2022/09/09 14:03:46;;;;;;;4.47;2.78;;;;;;;;;;4972064;28;20050;-81
2022/09/09 14:06:12;;;;;;;5.53;2.50;;;;;;;;;;4970622;28;20479;-81
2022/09/09 14:08:38;;;;;;;5.53;2.47;;;;;;;;;;4984575;28;20492;-81
2022/09/09 14:11:04;;;;;;;5.90;2.40;;;;;;;;;;4990914;28;20121;-81
2022/09/09 14:13:31;;;;;;;5.32;2.13;;;;;;;;;;4990786;28;20137;-81
2022/09/09 14:15:57;;;;;;;5.05;2.25;;;;;;;;;;4988787;28;20050;-81
2022/09/09 14:18:25;;;;;;;4.47;2.22;;;;;;;;;;4972151;28;20042;-81
2022/09/09 14:20:51;;;;;;;6.60;2.22;;;;;;;;;;4971546;28;20049;-81
2022/09/09 14:23:18;;;;;;;4.30;2.40;;;;;;;;;;4984253;28;20045;-81
2022/09/09 14:25:44;;;;;;;5.55;2.67;;;;;;;;;;4989491;28;20039;-81
2022/09/09 14:28:11;;;;;;;4.03;2.40;;;;;;;;;;4988964;28;20407;-81
2022/09/09 14:30:38;;;;;;;5.05;2.45;;;;;;;;;;4990704;28;20635;-81
2022/09/09 14:33:04;;;;;;;5.20;2.80;;;;;;;;;;4988318;28;20124;-81
2022/09/09 14:35:30;;;;;;;4.15;2.30;;;;;;;;;;4990671;28;20049;-81
2022/09/09 14:37:56;;;;;;;5.10;2.20;;;;;;;;;;4989124;28;20054;-81
2022/09/09 14:40:22;;;;;;;4.07;2.30;;;;;;;;;;4989112;28;20053;-81
2022/09/09 14:42:48;;;;;;;4.47;2.30;;;;;;;;;;4990555;28;20049;-81
2022/09/09 14:45:14;;;;;;;5.60;2.20;;;;;;;;;;4988778;28;20050;-81